Time;durP1;ratioP1;P1;durP2;ratioP2;P2;SDS_P1;SDS_P2;PMS_P1;PMS_P2;Temp;Humidity;BMP_temperature;BMP_pressure;BME280_temperature;BME280_humidity;BME280_pressure;Samples;Min_cycle;Max_cycle;Signal;HPM_P1;HPM_P2
2021/07/18 00:02:26;;;;;;;7.70;5.47;;;18.40;99.90;;;;;;4975578;28;20126;-80
2021/07/18 00:04:55;;;;;;;9.00;5.40;;;18.40;99.90;;;;;;4975308;28;20051;-81
2021/07/18 00:07:23;;;;;;;10.82;5.28;;;18.40;99.90;;;;;;4977134;28;20055;-81
2021/07/18 00:09:50;;;;;;;13.32;6.13;;;18.40;99.90;;;;;;4974526;28;20046;-81
2021/07/18 00:12:17;;;;;;;10.95;6.30;;;18.30;99.90;;;;;;4974702;28;20118;-79
2021/07/18 00:14:43;;;;;;;8.80;6.18;;;18.30;99.90;;;;;;4973152;28;20061;-77
2021/07/18 00:17:12;;;;;;;9.32;5.70;;;18.30;99.90;;;;;;4973062;28;20114;-79
2021/07/18 00:19:39;;;;;;;9.27;5.40;;;18.30;99.90;;;;;;4973337;28;20111;-79
2021/07/18 00:22:07;;;;;;;10.18;5.60;;;18.30;99.90;;;;;;4975040;28;20626;-78
2021/07/18 00:24:34;;;;;;;8.20;5.97;;;18.30;99.90;;;;;;4977939;28;20071;-79
2021/07/18 00:27:01;;;;;;;7.80;5.90;;;18.20;99.90;;;;;;4978697;28;20083;-79
2021/07/18 00:29:28;;;;;;;10.35;5.65;;;18.20;99.90;;;;;;4980765;28;20066;-79
2021/07/18 00:31:55;;;;;;;8.88;5.20;;;18.20;99.90;;;;;;4992112;28;20137;-80
2021/07/18 00:34:23;;;;;;;8.23;5.82;;;18.10;99.90;;;;;;4990906;28;20106;-79
2021/07/18 00:36:50;;;;;;;8.70;6.30;;;18.10;99.90;;;;;;4988624;28;20065;-80
2021/07/18 00:39:17;;;;;;;8.48;5.40;;;18.10;99.90;;;;;;4990365;28;20102;-81
2021/07/18 00:41:44;;;;;;;7.85;5.90;;;18.00;99.90;;;;;;4990797;28;20484;-79
2021/07/18 00:44:11;;;;;;;8.82;6.03;;;18.00;99.90;;;;;;4989314;28;20082;-80
2021/07/18 00:46:38;;;;;;;10.60;6.05;;;17.90;99.90;;;;;;4988386;28;20523;-80
2021/07/18 00:49:05;;;;;;;11.18;5.80;;;17.90;99.90;;;;;;4988584;28;20571;-80
2021/07/18 00:51:33;;;;;;;8.10;5.80;;;17.90;99.90;;;;;;4988401;28;20141;-78
2021/07/18 00:54:01;;;;;;;8.63;5.68;;;17.90;99.90;;;;;;4987902;28;20110;-81
2021/07/18 00:56:29;;;;;;;7.95;5.85;;;17.90;99.90;;;;;;4987678;28;20054;-80
2021/07/18 00:59:29;;;;;;;8.98;5.63;;;17.80;99.90;;;;;;4986301;28;20054;-80
2021/07/18 01:02:19;;;;;;;10.63;6.43;;;17.80;99.90;;;;;;4971319;28;20282;-80
2021/07/18 01:24:24;;;;;;;13.80;6.70;;;17.60;99.90;;;;;;4869891;29;20053;-79
2021/07/18 01:26:57;;;;;;;8.70;6.63;;;17.50;99.90;;;;;;4813369;29;20058;-81
2021/07/18 01:29:55;;;;;;;11.43;6.72;;;17.50;99.90;;;;;;4826962;29;20090;-81
2021/07/18 01:32:44;;;;;;;9.02;6.47;;;17.40;99.90;;;;;;4967284;28;20058;-80
2021/07/18 01:35:14;;;;;;;9.90;6.47;;;17.30;99.90;;;;;;4983780;28;20062;-80
2021/07/18 01:37:51;;;;;;;10.50;6.63;;;17.30;99.90;;;;;;4985860;28;20050;-80
2021/07/18 01:40:25;;;;;;;9.85;7.30;;;17.30;99.90;;;;;;4984739;28;20046;-80
2021/07/18 01:53:54;;;;;;;9.00;6.82;;;17.20;99.90;;;;;;4986729;28;20058;-80
2021/07/18 01:56:44;;;;;;;9.82;6.63;;;17.20;99.90;;;;;;4955975;28;20093;-80
2021/07/18 01:59:29;;;;;;;9.27;6.65;;;17.20;99.90;;;;;;4989999;28;20051;-80
2021/07/18 02:01:59;;;;;;;13.25;7.40;;;17.20;99.90;;;;;;4988942;28;20058;-81
2021/07/18 02:04:52;;;;;;;11.65;7.65;;;17.20;99.90;;;;;;4989245;28;20136;-81
2021/07/18 02:07:40;;;;;;;14.85;7.40;;;17.20;99.90;;;;;;4984411;28;20053;-80
2021/07/18 02:10:14;;;;;;;11.68;7.60;;;17.20;99.90;;;;;;4985575;28;20043;-80
2021/07/18 02:12:42;;;;;;;13.90;8.13;;;17.20;99.90;;;;;;4986081;28;20117;-80
2021/07/18 02:15:11;;;;;;;12.75;8.00;;;17.10;99.90;;;;;;4986892;28;20082;-81
2021/07/18 02:17:38;;;;;;;9.10;7.20;;;17.10;99.90;;;;;;4986720;28;20086;-80
2021/07/18 02:20:09;;;;;;;13.90;7.68;;;17.10;99.90;;;;;;4987288;28;20107;-81
2021/07/18 02:22:52;;;;;;;13.98;8.90;;;17.10;99.90;;;;;;4985657;28;20050;-80
2021/07/18 02:25:26;;;;;;;11.20;7.30;;;17.10;99.90;;;;;;4983184;28;20120;-81
2021/07/18 02:27:55;;;;;;;13.45;8.00;;;17.10;99.90;;;;;;4985724;28;20125;-81
2021/07/18 02:30:24;;;;;;;13.55;7.80;;;17.10;99.90;;;;;;4984289;28;20282;-81
2021/07/18 02:32:52;;;;;;;14.80;7.80;;;17.00;99.90;;;;;;4985553;28;20090;-81
2021/07/18 02:35:21;;;;;;;14.32;8.48;;;16.90;99.90;;;;;;4986892;28;20119;-81
2021/07/18 02:37:49;;;;;;;13.82;8.02;;;16.90;99.90;;;;;;4987080;28;20103;-79
2021/07/18 02:40:18;;;;;;;13.40;8.38;;;16.90;99.90;;;;;;4985880;28;20125;-80
2021/07/18 02:42:45;;;;;;;17.48;8.00;;;16.80;99.90;;;;;;4986840;28;20110;-80
2021/07/18 02:45:16;;;;;;;14.75;9.10;;;16.80;99.90;;;;;;4991212;28;20074;-79
2021/07/18 02:47:43;;;;;;;14.77;9.02;;;16.80;99.90;;;;;;4992081;28;20415;-79
2021/07/18 02:50:12;;;;;;;11.65;8.73;;;16.80;99.90;;;;;;4992060;28;20054;-79
2021/07/18 02:52:39;;;;;;;12.82;8.63;;;16.80;99.90;;;;;;4988818;28;20110;-79
2021/07/18 02:55:08;;;;;;;14.85;8.77;;;16.80;99.90;;;;;;4986000;28;20054;-80
2021/07/18 02:57:35;;;;;;;16.85;9.50;;;16.80;99.90;;;;;;4983875;28;20106;-81
2021/07/18 03:00:02;;;;;;;11.77;9.02;;;16.80;99.90;;;;;;4984246;28;20078;-81
2021/07/18 03:02:30;;;;;;;13.65;9.30;;;16.80;99.90;;;;;;4987826;28;20114;-82
2021/07/18 03:04:57;;;;;;;16.48;9.52;;;16.70;99.90;;;;;;4986607;28;20500;-82
2021/07/18 03:07:24;;;;;;;15.45;10.07;;;16.70;99.90;;;;;;4987691;28;20051;-81
2021/07/18 03:09:50;;;;;;;20.98;9.95;;;16.60;99.90;;;;;;4987993;28;20046;-82
2021/07/18 03:12:22;;;;;;;19.92;9.75;;;16.60;99.90;;;;;;4988483;28;20054;-81
2021/07/18 03:15:26;;;;;;;14.13;9.35;;;16.60;99.90;;;;;;4988077;28;20080;-81
2021/07/18 03:22:01;;;;;;;16.80;9.82;;;16.60;99.90;;;;;;4894362;28;20060;-82
2021/07/18 03:24:28;;;;;;;17.67;10.63;;;16.50;99.90;;;;;;5011228;23;20084;-79
2021/07/18 03:26:55;;;;;;;13.48;9.65;;;16.50;99.90;;;;;;4993576;28;20422;-81
2021/07/18 03:29:22;;;;;;;17.30;10.55;;;16.50;99.90;;;;;;4995671;28;20137;-80
2021/07/18 03:31:48;;;;;;;14.38;10.88;;;16.40;99.90;;;;;;4994643;28;20125;-79
2021/07/18 03:34:16;;;;;;;13.55;10.90;;;16.50;99.90;;;;;;4986273;28;20137;-78
2021/07/18 03:36:44;;;;;;;17.45;10.35;;;16.50;99.90;;;;;;4976098;28;20422;-79
2021/07/18 03:39:11;;;;;;;17.25;10.88;;;16.50;99.90;;;;;;4975113;28;20055;-78
2021/07/18 03:41:38;;;;;;;16.60;11.40;;;16.60;99.90;;;;;;4974426;28;20101;-79
2021/07/18 03:44:05;;;;;;;19.05;10.95;;;16.50;99.90;;;;;;4973223;28;20142;-79
2021/07/18 03:46:32;;;;;;;16.38;11.27;;;16.50;99.90;;;;;;4974008;28;20150;-79
2021/07/18 03:48:59;;;;;;;20.13;11.75;;;16.60;99.90;;;;;;4973613;28;20130;-78
2021/07/18 03:51:25;;;;;;;18.58;12.50;;;16.60;99.90;;;;;;4973414;28;20130;-78
2021/07/18 03:53:54;;;;;;;15.60;10.73;;;16.60;99.90;;;;;;4974978;28;20110;-80
2021/07/18 03:56:22;;;;;;;18.05;11.88;;;16.60;99.90;;;;;;4977313;28;20073;-79
2021/07/18 03:58:49;;;;;;;18.00;11.80;;;16.60;99.90;;;;;;4976496;28;20496;-79
2021/07/18 04:01:16;;;;;;;20.08;11.40;;;16.60;99.90;;;;;;4975425;28;20146;-78
2021/07/18 04:03:46;;;;;;;17.63;11.48;;;16.60;99.90;;;;;;4973333;28;20133;-79
2021/07/18 04:06:13;;;;;;;18.00;11.63;;;16.70;99.90;;;;;;4974269;28;20145;-80
2021/07/18 04:08:40;;;;;;;17.27;10.75;;;16.80;99.90;;;;;;4975451;28;20057;-79
2021/07/18 04:11:08;;;;;;;21.58;11.45;;;16.80;99.90;;;;;;4975761;28;20043;-80
2021/07/18 04:13:38;;;;;;;16.83;11.93;;;16.90;99.90;;;;;;4974842;28;20106;-79
2021/07/18 04:16:06;;;;;;;19.38;10.50;;;17.10;99.90;;;;;;4975564;28;20055;-80
2021/07/18 04:18:34;;;;;;;15.35;9.95;;;17.30;99.90;;;;;;4975148;28;20051;-79
2021/07/18 04:21:02;;;;;;;15.27;9.50;;;17.50;99.90;;;;;;4975141;28;20118;-79
2021/07/18 04:23:30;;;;;;;17.10;9.75;;;17.70;99.90;;;;;;4974515;28;20082;-77
2021/07/18 04:25:56;;;;;;;14.02;9.55;;;17.90;99.90;;;;;;4974675;28;20094;-79
2021/07/18 04:28:25;;;;;;;14.63;9.35;;;18.10;99.90;;;;;;4975467;28;20156;-79
2021/07/18 04:30:52;;;;;;;14.50;10.43;;;18.10;99.90;;;;;;4975633;28;20145;-80
2021/07/18 04:36:06;;;;;;;13.63;9.70;;;18.20;99.90;;;;;;4953240;28;20055;-79
2021/07/18 04:38:47;;;;;;;14.65;10.05;;;18.40;99.90;;;;;;4955300;29;20051;-79
2021/07/18 04:41:19;;;;;;;16.17;9.75;;;18.60;99.90;;;;;;4958568;28;20065;-78
2021/07/18 04:46:54;;;;;;;12.70;9.88;;;18.80;99.90;;;;;;4904209;23;19922;-80
2021/07/18 04:49:21;;;;;;;18.45;10.60;;;18.70;99.90;;;;;;4969326;28;20047;-80
2021/07/18 04:51:48;;;;;;;16.30;10.15;;;18.70;99.90;;;;;;4973645;28;20050;-79
2021/07/18 04:54:15;;;;;;;13.98;10.02;;;18.70;99.90;;;;;;4974786;28;20050;-81
2021/07/18 04:56:42;;;;;;;15.05;10.20;;;18.60;99.90;;;;;;4974837;28;20055;-79
2021/07/18 04:59:09;;;;;;;12.85;9.73;;;18.60;99.90;;;;;;4975035;28;20061;-79
2021/07/18 05:01:35;;;;;;;18.00;10.38;;;18.60;99.90;;;;;;4974899;28;20125;-79
2021/07/18 05:04:04;;;;;;;18.45;11.68;;;18.70;99.90;;;;;;4974698;28;20057;-79
2021/07/18 05:06:31;;;;;;;18.27;10.27;;;18.80;99.90;;;;;;4975047;28;20433;-80
2021/07/18 05:08:57;;;;;;;13.82;9.38;;;19.00;99.90;;;;;;4974817;28;20138;-82
2021/07/18 05:11:24;;;;;;;15.30;9.95;;;19.10;99.90;;;;;;4975677;28;20043;-80
2021/07/18 05:13:52;;;;;;;15.00;11.10;;;19.20;99.90;;;;;;4975255;28;20105;-79
2021/07/18 05:16:19;;;;;;;14.50;11.15;;;19.30;99.90;;;;;;4976284;28;20054;-79
2021/07/18 05:18:46;;;;;;;15.98;11.05;;;19.30;99.90;;;;;;4974998;28;20137;-80
2021/07/18 05:21:15;;;;;;;16.40;10.50;;;19.40;99.90;;;;;;4974801;28;20057;-79
2021/07/18 05:23:42;;;;;;;15.40;10.95;;;19.50;99.90;;;;;;4975475;28;20062;-80
2021/07/18 05:26:09;;;;;;;13.63;10.07;;;19.70;99.90;;;;;;4975298;28;20468;-80
2021/07/18 05:28:35;;;;;;;14.63;9.73;;;20.20;99.90;;;;;;4976937;28;20133;-80
2021/07/18 05:31:02;;;;;;;12.73;9.48;;;20.80;99.90;;;;;;4977016;28;20046;-80
2021/07/18 05:33:29;;;;;;;11.25;9.00;;;21.50;99.90;;;;;;4975741;28;20082;-79
2021/07/18 05:35:56;;;;;;;12.85;9.02;;;22.10;99.90;;;;;;4974415;28;20050;-79
2021/07/18 05:38:24;;;;;;;15.10;9.23;;;22.80;99.90;;;;;;4974300;28;20051;-81
2021/07/18 05:40:51;;;;;;;15.00;9.02;;;23.40;99.90;;;;;;4973936;28;20057;-81
2021/07/18 05:43:18;;;;;;;13.15;8.68;;;24.00;99.90;;;;;;4973918;28;20528;-79
2021/07/18 05:45:45;;;;;;;17.30;8.85;;;24.50;99.90;;;;;;4974085;28;20138;-79
2021/07/18 05:48:12;;;;;;;10.30;7.80;;;25.00;99.90;;;;;;4973980;28;20073;-79
2021/07/18 05:50:39;;;;;;;13.98;8.60;;;25.30;99.90;;;;;;4974229;28;20047;-79
2021/07/18 05:53:05;;;;;;;11.98;8.77;;;25.60;99.90;;;;;;4973788;28;20055;-83
2021/07/18 05:55:34;;;;;;;13.13;9.07;;;25.80;99.90;;;;;;4982057;28;20499;-81
2021/07/18 05:58:00;;;;;;;12.85;8.52;;;26.20;99.90;;;;;;4979106;28;20078;-80
2021/07/18 06:00:27;;;;;;;17.05;8.02;;;26.60;99.90;;;;;;4979491;28;20132;-79
2021/07/18 06:02:54;;;;;;;15.13;8.32;;;26.80;99.90;;;;;;4977627;28;20138;-82
2021/07/18 06:05:21;;;;;;;11.60;8.82;;;27.00;99.90;;;;;;4973954;28;20137;-79
2021/07/18 06:07:48;;;;;;;12.05;7.93;;;27.10;99.90;;;;;;4973999;28;20047;-79
2021/07/18 06:10:15;;;;;;;13.02;8.57;;;27.20;99.90;;;;;;4973836;28;20053;-81
2021/07/18 06:12:43;;;;;;;13.82;8.98;;;27.30;99.90;;;;;;4974007;28;20051;-79
2021/07/18 06:15:10;;;;;;;10.93;8.48;;;27.20;99.90;;;;;;4973679;28;20240;-78
2021/07/18 06:21:44;;;;;;;14.20;8.82;;;28.10;99.90;;;;;;4976455;28;20061;-79
2021/07/18 06:24:23;;;;;;;10.45;9.35;;;27.70;99.90;;;;;;4989375;28;20073;-80
2021/07/18 06:26:50;;;;;;;12.32;9.25;;;27.00;99.90;;;;;;4992718;28;20163;-79
2021/07/18 06:29:18;;;;;;;12.50;9.15;;;26.60;99.90;;;;;;4992799;28;20050;-78
2021/07/18 06:31:45;;;;;;;14.40;9.55;;;26.40;99.90;;;;;;5001322;23;20061;-78
2021/07/18 06:34:12;;;;;;;10.45;8.27;;;26.50;99.90;;;;;;4974182;28;20138;-78
2021/07/18 06:36:38;;;;;;;11.98;9.50;;;26.80;99.90;;;;;;4975006;28;20158;-78
2021/07/18 06:39:05;;;;;;;11.02;9.27;;;26.40;99.90;;;;;;4974841;28;20486;-78
2021/07/18 06:41:32;;;;;;;14.55;10.02;;;26.20;99.90;;;;;;4974337;28;20042;-78
2021/07/18 06:44:01;;;;;;;13.05;10.18;;;25.60;99.90;;;;;;4974980;28;20078;-76
2021/07/18 06:46:29;;;;;;;13.02;10.65;;;25.00;99.90;;;;;;4974534;28;20055;-78
2021/07/18 06:48:56;;;;;;;14.73;10.55;;;24.90;99.90;;;;;;4974188;28;20205;-81
2021/07/18 06:51:23;;;;;;;14.75;11.18;;;24.70;99.90;;;;;;4974222;28;20053;-78
2021/07/18 06:53:50;;;;;;;12.77;10.77;;;24.30;99.90;;;;;;4973869;28;20057;-78
2021/07/18 06:56:17;;;;;;;15.27;11.35;;;24.10;99.90;;;;;;4973998;28;20046;-81
2021/07/18 06:58:44;;;;;;;13.23;10.73;;;24.30;99.90;;;;;;4974350;28;20487;-79
2021/07/18 07:01:10;;;;;;;14.07;10.23;;;24.60;99.90;;;;;;4974176;28;20491;-79
2021/07/18 07:03:39;;;;;;;14.13;10.32;;;25.20;99.90;;;;;;4976045;28;20046;-78
2021/07/18 07:06:06;;;;;;;16.20;10.13;;;26.10;99.90;;;;;;4977707;28;20432;-78
2021/07/18 07:08:32;;;;;;;13.57;10.23;;;26.90;99.90;;;;;;4977897;28;20134;-79
2021/07/18 07:10:59;;;;;;;13.15;9.27;;;27.30;99.90;;;;;;4975411;28;20047;-81
2021/07/18 07:13:27;;;;;;;11.65;9.73;;;27.80;99.90;;;;;;4974657;28;20065;-78
2021/07/18 07:15:54;;;;;;;11.32;10.23;;;28.10;99.90;;;;;;4969777;28;20102;-81
2021/07/18 07:18:21;;;;;;;11.85;9.13;;;28.20;99.90;;;;;;4969359;28;20061;-77
2021/07/18 07:20:49;;;;;;;10.80;8.43;;;28.40;99.90;;;;;;4953687;28;20048;-81
2021/07/18 07:23:16;;;;;;;10.07;8.95;;;29.10;99.90;;;;;;4963069;28;20097;-78
2021/07/18 07:25:43;;;;;;;13.95;10.40;;;29.10;99.90;;;;;;4960253;28;20057;-78
2021/07/18 07:28:10;;;;;;;12.05;9.25;;;28.30;99.90;;;;;;4949453;29;20061;-78
2021/07/18 07:30:36;;;;;;;10.23;8.93;;;27.50;99.90;;;;;;4954804;28;20137;-81
2021/07/18 07:33:03;;;;;;;12.55;9.75;;;27.60;99.90;;;;;;4965941;28;20129;-79
2021/07/18 07:35:30;;;;;;;12.73;10.30;;;28.30;99.90;;;;;;4977099;28;20097;-79
2021/07/18 07:37:59;;;;;;;12.98;10.93;;;28.90;99.90;;;;;;4980178;28;20111;-82
2021/07/18 07:40:26;;;;;;;16.13;12.50;;;29.10;99.90;;;;;;4975369;28;20042;-78
2021/07/18 07:42:53;;;;;;;13.80;12.20;;;29.50;99.90;;;;;;4973514;28;20145;-77
2021/07/18 07:45:20;;;;;;;15.43;13.68;;;29.60;99.90;;;;;;4973052;28;20054;-80
2021/07/18 07:47:47;;;;;;;15.00;12.50;;;29.70;99.90;;;;;;4972892;28;20581;-78
2021/07/18 07:50:14;;;;;;;15.32;12.63;;;30.00;99.90;;;;;;4973162;28;20047;-79
2021/07/18 07:52:42;;;;;;;14.90;10.25;;;30.10;99.90;;;;;;4960223;28;20134;-77
2021/07/18 07:55:11;;;;;;;11.77;8.90;;;30.40;99.90;;;;;;4971771;28;20134;-77
2021/07/18 07:57:38;;;;;;;14.23;10.82;;;30.20;99.90;;;;;;4971441;28;20065;-77
2021/07/18 08:00:08;;;;;;;11.43;9.75;;;28.80;99.90;;;;;;4972089;28;20149;-77
2021/07/18 08:02:34;;;;;;;11.63;8.90;;;28.20;99.90;;;;;;4971323;28;20438;-78
2021/07/18 08:05:02;;;;;;;15.68;8.02;;;28.20;99.90;;;;;;4973213;28;20138;-78
2021/07/18 08:07:28;;;;;;;10.98;8.60;;;28.30;99.90;;;;;;4973837;28;20220;-80
2021/07/18 08:09:58;;;;;;;9.32;7.82;;;27.90;99.90;;;;;;4973243;28;20137;-78
2021/07/18 08:12:26;;;;;;;12.70;9.20;;;28.10;99.90;;;;;;4973013;28;20134;-78
2021/07/18 08:14:55;;;;;;;11.43;8.50;;;28.00;99.90;;;;;;4973115;28;20137;-77
2021/07/18 08:17:21;;;;;;;12.02;7.68;;;27.70;99.90;;;;;;4975267;28;20125;-77
2021/07/18 08:19:48;;;;;;;9.63;6.63;;;27.20;99.90;;;;;;4977738;28;20153;-77
2021/07/18 08:22:15;;;;;;;9.60;8.00;;;27.20;99.90;;;;;;4976854;28;20571;-78
2021/07/18 08:24:42;;;;;;;11.25;7.93;;;27.20;99.90;;;;;;4976497;28;20154;-78
2021/07/18 08:27:09;;;;;;;10.85;8.40;;;27.90;99.90;;;;;;4977020;28;20129;-79
2021/07/18 08:29:37;;;;;;;14.02;9.38;;;28.50;99.90;;;;;;4976402;28;20053;-80
2021/07/18 08:32:05;;;;;;;10.20;8.18;;;29.00;99.90;;;;;;4976389;28;20129;-80
2021/07/18 08:34:32;;;;;;;10.63;8.48;;;28.60;99.90;;;;;;4976928;28;20050;-79
2021/07/18 08:36:59;;;;;;;10.32;7.28;;;28.80;99.90;;;;;;4968456;28;20106;-79
2021/07/18 08:39:26;;;;;;;8.63;7.00;;;29.40;99.90;;;;;;4971009;28;20470;-78
2021/07/18 08:41:54;;;;;;;10.73;6.32;;;28.80;99.90;;;;;;4961007;28;20047;-79
2021/07/18 08:44:21;;;;;;;10.90;6.82;;;28.70;99.90;;;;;;4977530;28;20101;-79
2021/07/18 08:46:50;;;;;;;8.35;6.30;;;28.90;99.90;;;;;;4979209;28;20076;-79
2021/07/18 08:49:17;;;;;;;9.60;6.10;;;29.40;99.90;;;;;;4970350;28;20173;-80
2021/07/18 08:51:44;;;;;;;7.18;5.13;;;29.30;99.90;;;;;;4971331;28;20134;-79
2021/07/18 08:54:12;;;;;;;7.85;5.20;;;28.80;99.90;;;;;;4955329;28;20627;-79
2021/07/18 08:56:40;;;;;;;8.48;4.90;;;28.50;99.90;;;;;;4954697;28;20151;-79
2021/07/18 08:59:08;;;;;;;7.97;5.43;;;28.50;99.90;;;;;;4958222;28;20050;-77
2021/07/18 09:01:35;;;;;;;5.93;4.47;;;28.50;99.90;;;;;;4967088;28;20075;-78
2021/07/18 09:04:04;;;;;;;5.07;4.15;;;28.30;99.90;;;;;;4976962;28;20051;-78
2021/07/18 09:06:45;;;;;;;6.47;4.10;;;27.80;99.90;;;;;;4964316;28;20134;-79
2021/07/18 09:09:16;;;;;;;6.78;4.70;;;28.40;99.90;;;;;;4975246;28;20050;-78
2021/07/18 09:11:44;;;;;;;6.63;4.80;;;28.80;99.90;;;;;;4981072;28;20526;-79
2021/07/18 09:14:13;;;;;;;8.48;4.70;;;29.10;99.90;;;;;;4979473;28;20109;-80
2021/07/18 09:16:41;;;;;;;7.53;4.93;;;29.30;99.90;;;;;;4981738;28;20074;-80
2021/07/18 09:19:20;;;;;;;6.53;4.70;;;28.70;99.90;;;;;;4982021;28;20570;-80
2021/07/18 09:22:12;;;;;;;6.65;5.13;;;28.50;99.90;;;;;;4981391;28;20051;-81
2021/07/18 09:24:40;;;;;;;8.03;5.43;;;29.00;99.90;;;;;;4974690;28;20093;-81
2021/07/18 09:27:22;;;;;;;7.38;4.85;;;29.30;99.90;;;;;;4981031;28;20081;-80
2021/07/18 09:29:51;;;;;;;6.25;4.97;;;29.30;99.90;;;;;;4975961;28;20109;-79
2021/07/18 09:32:20;;;;;;;6.47;5.22;;;28.50;99.90;;;;;;4975379;28;20047;-80
2021/07/18 09:34:50;;;;;;;9.75;5.47;;;28.00;99.90;;;;;;4976617;28;20066;-78
2021/07/18 09:37:19;;;;;;;7.05;5.72;;;28.30;99.90;;;;;;4977961;28;20149;-77
2021/07/18 09:39:55;;;;;;;7.47;5.45;;;28.80;99.90;;;;;;4977235;28;20089;-78
2021/07/18 09:42:43;;;;;;;8.18;5.88;;;29.00;99.90;;;;;;4977721;28;20125;-80
2021/07/18 09:45:19;;;;;;;10.38;5.78;;;29.10;99.90;;;;;;4978108;28;20102;-80
2021/07/18 09:48:00;;;;;;;8.65;5.88;;;29.10;99.90;;;;;;4979874;28;20475;-78
2021/07/18 09:50:32;;;;;;;10.20;6.47;;;28.90;99.90;;;;;;4979597;28;20047;-79
2021/07/18 09:53:10;;;;;;;8.02;5.75;;;28.50;99.90;;;;;;4980189;28;20047;-80
2021/07/18 09:55:38;;;;;;;6.43;5.13;;;28.70;99.90;;;;;;4986375;28;20130;-79
2021/07/18 09:58:05;;;;;;;7.32;5.63;;;28.80;99.90;;;;;;4989037;28;20194;-80
2021/07/18 10:00:42;;;;;;;6.75;5.15;;;28.80;99.90;;;;;;4987007;28;20129;-79
2021/07/18 10:03:14;;;;;;;6.00;5.00;;;28.80;99.90;;;;;;4985124;28;20496;-79
2021/07/18 10:05:42;;;;;;;5.13;4.55;;;28.60;99.90;;;;;;4989756;28;20075;-78
2021/07/18 10:08:11;;;;;;;6.65;4.97;;;28.40;99.90;;;;;;4986743;28;20114;-79
2021/07/18 10:10:40;;;;;;;6.05;4.57;;;28.30;99.90;;;;;;4988503;28;20461;-80
2021/07/18 10:13:08;;;;;;;6.75;5.25;;;28.20;99.90;;;;;;4983938;28;20039;-80
2021/07/18 10:15:35;;;;;;;9.55;4.93;;;27.80;99.90;;;;;;4988470;28;20097;-79
2021/07/18 10:18:02;;;;;;;7.13;5.00;;;27.50;99.90;;;;;;4989140;28;20111;-80
2021/07/18 10:20:30;;;;;;;9.07;5.35;;;27.30;99.90;;;;;;4988092;28;20526;-80
2021/07/18 10:23:02;;;;;;;10.80;5.53;;;27.20;99.90;;;;;;4984981;28;20162;-82
2021/07/18 10:25:30;;;;;;;9.57;5.30;;;27.20;99.90;;;;;;4987273;28;20051;-80
2021/07/18 10:27:58;;;;;;;11.15;5.95;;;27.20;99.90;;;;;;4993757;28;20053;-81
2021/07/18 10:30:26;;;;;;;8.02;6.10;;;26.70;99.90;;;;;;4988860;28;20077;-80
2021/07/18 10:32:56;;;;;;;11.38;6.18;;;26.40;99.90;;;;;;4998602;28;20074;-79
2021/07/18 10:35:23;;;;;;;9.77;6.72;;;26.50;99.90;;;;;;4979861;28;20054;-81
2021/07/18 10:37:50;;;;;;;14.73;7.38;;;26.70;99.90;;;;;;4979328;28;20097;-79
2021/07/18 10:40:21;;;;;;;12.38;7.82;;;26.90;99.90;;;;;;4980645;28;20054;-83
2021/07/18 10:42:49;;;;;;;13.02;8.13;;;26.80;99.90;;;;;;4979275;28;20054;-80
2021/07/18 10:45:19;;;;;;;12.85;7.95;;;26.70;99.90;;;;;;4979239;28;20047;-81
2021/07/18 10:47:57;;;;;;;12.55;8.02;;;26.70;99.90;;;;;;4979792;28;20062;-81
2021/07/18 10:50:50;;;;;;;10.68;7.88;;;26.60;99.90;;;;;;4987140;28;20148;-82
2021/07/18 10:53:20;;;;;;;;;;;26.70;99.90;;;;;;4985893;28;20315;-82
2021/07/18 10:55:50;;;;;;;11.50;7.13;;;26.70;99.90;;;;;;4991665;28;20017;-80
2021/07/18 10:58:47;;;;;;;12.70;6.88;;;26.80;99.90;;;;;;4983029;28;20050;-80
2021/07/18 11:01:35;;;;;;;9.13;6.20;;;27.00;99.90;;;;;;4976084;28;20098;-81
2021/07/18 11:04:04;;;;;;;10.80;6.88;;;27.30;99.90;;;;;;4982853;28;20046;-81
2021/07/18 11:06:33;;;;;;;10.80;6.20;;;27.40;99.90;;;;;;4988792;28;20109;-80
2021/07/18 11:09:12;;;;;;;8.35;5.50;;;27.60;99.90;;;;;;4986129;28;20054;-80
2021/07/18 11:11:41;;;;;;;7.68;5.30;;;27.80;99.90;;;;;;4990010;28;20119;-81
2021/07/18 11:14:25;;;;;;;10.23;5.50;;;27.70;99.90;;;;;;4989416;28;20058;-78
2021/07/18 11:16:54;;;;;;;8.57;5.07;;;27.70;99.90;;;;;;4983909;28;20046;-82
2021/07/18 11:19:58;;;;;;;5.90;4.80;;;27.70;99.90;;;;;;4980745;28;20054;-82
2021/07/18 11:23:03;;;;;;;6.85;5.15;;;27.60;99.90;;;;;;4978054;28;20070;-81
2021/07/18 11:25:42;;;;;;;7.38;4.60;;;27.40;99.90;;;;;;4964264;28;20069;-81
2021/07/18 11:28:50;;;;;;;6.82;4.90;;;27.40;99.90;;;;;;4980959;28;20114;-82
2021/07/18 11:31:37;;;;;;;6.10;4.10;;;27.60;99.90;;;;;;4975032;28;20069;-81
2021/07/18 11:34:23;;;;;;;6.55;4.47;;;27.60;99.90;;;;;;4981232;28;20726;-80
2021/07/18 11:36:54;;;;;;;7.53;4.28;;;27.30;99.90;;;;;;4987324;28;20046;-80
2021/07/18 11:39:26;;;;;;;7.22;4.72;;;27.20;99.90;;;;;;4984520;28;20150;-80
2021/07/18 11:41:55;;;;;;;6.97;4.28;;;27.30;99.90;;;;;;4988843;28;20043;-82
2021/07/18 11:44:27;;;;;;;8.52;4.35;;;27.40;99.90;;;;;;4986055;28;20046;-81
2021/07/18 11:47:00;;;;;;;6.28;4.10;;;27.40;99.90;;;;;;4981597;28;20134;-80
2021/07/18 11:49:36;;;;;;;7.28;4.68;;;27.30;99.90;;;;;;4976120;28;20113;-81
2021/07/18 11:52:04;;;;;;;8.07;4.70;;;27.40;99.90;;;;;;4965633;28;20051;-81
2021/07/18 11:54:41;;;;;;;6.07;4.20;;;27.40;99.90;;;;;;4968976;28;20129;-80
2021/07/18 11:57:30;;;;;;;6.93;4.20;;;27.40;99.90;;;;;;4967409;28;20102;-83
2021/07/18 11:59:57;;;;;;;7.25;3.85;;;27.40;99.90;;;;;;4973810;28;20104;-80
2021/07/18 12:02:40;;;;;;;;;;;;;;;;;;;;;
2021/07/18 12:05:58;;;;;;;3.85;3.45;;;27.60;99.90;;;;;;4975757;28;20134;-82
2021/07/18 12:08:29;;;;;;;4.97;3.78;;;27.60;99.90;;;;;;4978095;28;20065;-80
2021/07/18 12:21:26;;;;;;;9.23;4.47;;;27.90;99.90;;;;;;4969255;28;20046;-81
2021/07/18 12:24:37;;;;;;;5.38;3.92;;;27.90;99.90;;;;;;4990202;28;20051;-82
2021/07/18 12:33:07;;;;;;;5.05;4.05;;;28.00;99.90;;;;;;4963846;28;20054;-79
2021/07/18 12:35:35;;;;;;;7.75;4.20;;;28.10;99.90;;;;;;4954741;28;20098;-79
2021/07/18 12:38:05;;;;;;;7.22;4.43;;;28.10;99.90;;;;;;4954764;28;20055;-84
2021/07/18 12:40:34;;;;;;;5.75;5.18;;;27.70;99.90;;;;;;4962983;28;20142;-81
2021/07/18 12:43:01;;;;;;;5.53;4.13;;;27.90;99.90;;;;;;4950366;29;20047;-79
2021/07/18 12:45:28;;;;;;;7.15;4.38;;;27.90;99.90;;;;;;4949654;29;20093;-79
2021/07/18 12:48:02;;;;;;;9.38;4.25;;;28.00;99.90;;;;;;4955106;29;20449;-82
2021/07/18 12:50:30;;;;;;;9.52;4.82;;;28.00;99.90;;;;;;4952796;28;20056;-80
2021/07/18 12:53:16;;;;;;;9.55;5.00;;;28.00;99.90;;;;;;4949239;28;20047;-81
2021/07/18 12:55:46;;;;;;;5.57;4.10;;;28.10;99.90;;;;;;4954143;28;20134;-80
2021/07/18 12:58:21;;;;;;;4.85;3.90;;;28.20;99.90;;;;;;4954486;29;20269;-80
2021/07/18 13:00:50;;;;;;;12.60;4.00;;;28.20;99.90;;;;;;4952802;29;20062;-83
2021/07/18 13:03:21;;;;;;;5.68;4.22;;;28.30;99.90;;;;;;4953123;28;20039;-79
2021/07/18 13:05:48;;;;;;;8.23;4.57;;;28.20;99.90;;;;;;4953999;29;20055;-80
2021/07/18 13:08:40;;;;;;;6.15;4.13;;;28.20;99.90;;;;;;4954518;28;20059;-81
2021/07/18 13:11:28;;;;;;;7.00;4.65;;;28.30;99.90;;;;;;4952778;28;20051;-81
2021/07/18 13:13:57;;;;;;;5.68;4.30;;;28.50;99.90;;;;;;4952316;28;20119;-81
2021/07/18 13:16:32;;;;;;;6.82;4.55;;;28.50;99.90;;;;;;4951201;28;20432;-80
2021/07/18 13:19:08;;;;;;;5.15;4.57;;;28.40;99.90;;;;;;4954616;29;20048;-80
2021/07/18 13:21:34;;;;;;;5.68;4.30;;;28.30;99.90;;;;;;4955515;29;20047;-80
2021/07/18 13:24:01;;;;;;;6.10;4.72;;;28.30;99.90;;;;;;4955714;29;20043;-78
2021/07/18 13:26:35;;;;;;;6.00;4.93;;;28.40;99.90;;;;;;4955387;29;20126;-79
2021/07/18 13:29:16;;;;;;;11.70;8.68;;;28.40;99.90;;;;;;4950451;29;20504;-79
2021/07/18 13:31:44;;;;;;;6.20;4.82;;;28.30;99.90;;;;;;4949843;28;20051;-81
2021/07/18 13:34:11;;;;;;;6.78;5.05;;;28.50;99.90;;;;;;4950280;29;20060;-78
2021/07/18 13:36:38;;;;;;;7.25;4.72;;;28.60;99.90;;;;;;4952557;29;20146;-78
2021/07/18 13:39:10;;;;;;;6.72;4.97;;;28.60;99.90;;;;;;4951727;28;20057;-80
2021/07/18 13:41:40;;;;;;;7.38;5.30;;;28.60;99.90;;;;;;4950096;29;20137;-80
2021/07/18 13:44:08;;;;;;;11.23;5.43;;;28.50;99.90;;;;;;4946911;28;20075;-80
2021/07/18 13:46:38;;;;;;;8.00;5.25;;;28.50;99.90;;;;;;4951570;29;20085;-81
2021/07/18 13:49:04;;;;;;;7.60;5.72;;;28.50;99.90;;;;;;4957106;29;20130;-81
2021/07/18 13:51:33;;;;;;;6.63;5.70;;;28.40;99.90;;;;;;4957912;28;20057;-81
2021/07/18 13:54:00;;;;;;;5.95;5.22;;;28.30;99.90;;;;;;4958286;28;20050;-82
2021/07/18 13:56:27;;;;;;;8.00;6.15;;;28.30;99.90;;;;;;4957231;28;20130;-81
2021/07/18 13:58:55;;;;;;;8.73;6.38;;;28.30;99.90;;;;;;4961838;29;20062;-81
2021/07/18 14:01:22;;;;;;;7.88;5.90;;;28.10;99.90;;;;;;4960859;28;20047;-81